createdAt,value
2023-02-07T00:00:44.354Z,102025.92
2023-02-07T00:30:41.795Z,102053.69
2023-02-07T00:31:41.726Z,102053.08
2023-02-07T00:32:42.010Z,102046.88
2023-02-07T00:33:43.464Z,102051.27
2023-02-07T00:34:42.628Z,102049.47
2023-02-07T00:35:43.569Z,102046.59
2023-02-07T00:36:43.581Z,102047.62
2023-02-07T00:37:43.894Z,102047.88
2023-02-07T00:38:45.338Z,102042.94
2023-02-07T00:39:44.706Z,102042.2
2023-02-07T00:40:45.128Z,102042.56
2023-02-07T00:41:45.960Z,102042.06
2023-02-07T00:42:45.963Z,102040.77
2023-02-07T00:43:47.516Z,102038.2
2023-02-07T00:44:46.981Z,102032.89
2023-02-07T00:45:47.228Z,102030.92
2023-02-07T00:46:47.632Z,102028.88
2023-02-07T00:47:48.065Z,102026.2
2023-02-07T00:48:48.371Z,102029.27
2023-02-07T00:49:49.089Z,102031.75
2023-02-07T00:50:49.298Z,102033.94
2023-02-07T00:51:49.715Z,102033.91
2023-02-07T00:52:50.027Z,102036.26
2023-02-07T00:53:50.441Z,102045.23
2023-02-07T00:54:50.958Z,102043.61
2023-02-07T00:55:51.497Z,102048.09
2023-02-07T00:56:51.889Z,102047.12
2023-02-07T00:57:52.142Z,102051.62
2023-02-07T00:58:52.941Z,102051.74
2023-02-07T00:59:53.039Z,102047.98
2023-02-07T01:00:53.852Z,102050.81
2023-02-07T01:01:53.771Z,102053.38
2023-02-07T01:02:54.707Z,102054.64
2023-02-07T01:03:58.495Z,102049.41
2023-02-07T01:04:56.010Z,102051.16
2023-02-07T01:05:56.770Z,102046.88
2023-02-07T01:06:56.956Z,102045.66
2023-02-07T01:07:57.209Z,102044.23
2023-02-07T01:09:01.417Z,102046.2
2023-02-07T01:09:58.738Z,102051.47
2023-02-07T01:11:03.984Z,102047.08
2023-02-07T01:12:01.412Z,102050
2023-02-07T01:13:02.061Z,102051.53
2023-02-07T01:14:03.290Z,102053.76
2023-02-07T01:15:02.777Z,102057.34
2023-02-07T01:16:05.989Z,102060.02
2023-02-07T01:17:04.739Z,102056.77
2023-02-07T01:18:07.503Z,102063.28
2023-02-07T01:19:08.335Z,102063.72
2023-02-07T01:20:06.298Z,102066.02
2023-02-07T01:21:17.990Z,102063.36
2023-02-07T01:22:10.498Z,102064.67
2023-02-07T01:23:11.325Z,102069.05
2023-02-07T01:24:11.231Z,102062.33
2023-02-07T01:25:11.637Z,102066.27
2023-02-07T01:26:11.879Z,102064.16
2023-02-07T01:27:12.483Z,102065.1
2023-02-07T01:28:14.579Z,102055.27
2023-02-07T01:29:14.754Z,102057.02
2023-02-07T01:30:14.032Z,102059.86
2023-02-07T01:31:13.963Z,102050.22
2023-02-07T01:32:15.072Z,102049.77
2023-02-07T01:33:14.601Z,102053.67
2023-02-07T01:34:14.887Z,102052.01
2023-02-07T01:35:15.296Z,102055.29
2023-02-07T01:36:16.523Z,102050.16
2023-02-07T01:37:16.358Z,102052.46
2023-02-07T01:38:16.566Z,102055.82
2023-02-07T01:39:16.863Z,102059.31
2023-02-07T01:40:17.387Z,102063.72
2023-02-07T01:41:17.685Z,102065.06
2023-02-07T01:42:18.737Z,102065.14
2023-02-07T01:43:23.011Z,102065.75
2023-02-07T01:46:27.653Z,102064.66
2023-02-07T01:47:27.270Z,102065.62
2023-02-07T01:48:34.838Z,102065.51
2023-02-07T01:49:35.750Z,102068.14
2023-02-07T01:50:33.843Z,102069.42
2023-02-07T01:51:37.326Z,102077.84
2023-02-07T01:52:39.990Z,102076.59
2023-02-07T01:53:38.862Z,102076.89
2023-02-07T01:54:38.277Z,102076.64
2023-02-07T01:55:39.991Z,102078.41
2023-02-07T01:56:43.940Z,102081.98
2023-02-07T01:57:42.187Z,102078.85
2023-02-07T01:58:41.754Z,102080.75
2023-02-07T01:59:44.000Z,102081.94
2023-02-07T02:00:42.413Z,102082.53
2023-02-07T02:01:44.548Z,102086.95
2023-02-07T02:02:44.228Z,102085.33
2023-02-07T02:03:47.127Z,102085.31
2023-02-07T02:04:45.297Z,102082.03
2023-02-07T02:05:46.427Z,102085.71
2023-02-07T02:06:46.536Z,102089.09
2023-02-07T02:07:45.832Z,102096.55
2023-02-07T02:08:46.497Z,102093.23
2023-02-07T02:09:46.560Z,102096.44
2023-02-07T02:46:16.430Z,102123.7
2023-02-07T02:47:11.281Z,102123.16
2023-02-07T02:48:11.485Z,102125.94
2023-02-07T02:49:13.545Z,102125.55
2023-02-07T02:50:20.114Z,102122.99
2023-02-07T02:51:13.038Z,102125.64
2023-02-07T02:52:13.255Z,102126.27
2023-02-07T02:53:14.387Z,102125
2023-02-07T02:55:18.805Z,102131.3
2023-02-07T03:02:46.601Z,102137.2
2023-02-07T03:17:25.814Z,102152.7
2023-02-07T03:22:36.918Z,102158.72
2023-02-07T03:23:36.703Z,102157.42
2023-02-07T03:24:37.637Z,102159.83
2023-02-07T03:25:39.191Z,102157.09
2023-02-07T03:26:38.583Z,102156.7
2023-02-07T03:27:39.088Z,102155.98
2023-02-07T03:28:41.449Z,102159.97
2023-02-07T03:29:42.483Z,102159.05
2023-02-07T03:30:42.313Z,102162.39
2023-02-07T03:31:43.656Z,102163.7
2023-02-07T03:32:44.245Z,102164.88
2023-02-07T03:33:43.599Z,102166.19
2023-02-07T03:34:50.300Z,102167.19
2023-02-07T03:37:52.162Z,102160.3
2023-02-07T03:38:49.909Z,102161.04
2023-02-07T03:39:50.632Z,102159.84
2023-02-07T03:40:58.431Z,102155.59
2023-02-07T03:41:59.662Z,102158.33
2023-02-07T03:44:00.504Z,102152.95
2023-02-07T03:44:59.677Z,102155.66
2023-02-07T03:45:58.667Z,102153.64
2023-02-07T03:46:59.997Z,102155.72
2023-02-07T03:47:59.093Z,102154.85
2023-02-07T03:48:59.506Z,102150.89
2023-02-07T03:49:59.816Z,102152.58
2023-02-07T03:51:00.342Z,102155.38
2023-02-07T03:52:00.860Z,102152.35
2023-02-07T03:53:00.963Z,102156.49
2023-02-07T03:54:01.479Z,102155.64
2023-02-07T03:55:01.815Z,102155.12
2023-02-07T03:56:02.222Z,102156.41
2023-02-07T03:57:02.527Z,102159.8
2023-02-07T03:58:02.838Z,102158.45
2023-02-07T03:59:03.773Z,102160.03
2023-02-07T04:00:04.793Z,102163.15
2023-02-07T04:01:04.590Z,102160.66
2023-02-07T04:02:04.463Z,102159.18
2023-02-07T04:03:05.337Z,102161.5
2023-02-07T04:04:05.342Z,102157.81
2023-02-07T04:05:06.367Z,102159.23
2023-02-07T04:06:06.482Z,102159.27
2023-02-07T04:07:06.823Z,102160.27
2023-02-07T04:08:07.119Z,102159.96
2023-02-07T04:09:08.750Z,102159.2
2023-02-07T04:10:08.149Z,102156.8
2023-02-07T04:11:08.150Z,102160.03
2023-02-07T04:12:08.655Z,102150.52
2023-02-07T04:13:09.097Z,102154.73
2023-02-07T04:14:09.517Z,102154.8
2023-02-07T04:15:10.329Z,102150.06
2023-02-07T04:16:10.245Z,102153.06
2023-02-07T04:17:10.754Z,102152.31
2023-02-07T04:18:11.181Z,102154.86
2023-02-07T04:19:11.492Z,102149.66
2023-02-07T04:20:12.824Z,102155.64
2023-02-07T04:21:12.210Z,102158.03
2023-02-07T04:22:12.631Z,102162.2
2023-02-07T04:23:13.576Z,102168.17
2023-02-07T04:24:16.532Z,102168.34
2023-02-07T04:25:13.984Z,102170.8
2023-02-07T04:26:17.169Z,102173.03
2023-02-07T04:27:16.143Z,102170.77
2023-02-07T04:28:15.079Z,102172.52
2023-02-07T04:29:15.445Z,102174.29
2023-02-07T04:30:16.470Z,102170
2023-02-07T04:31:16.466Z,102176.21
2023-02-07T04:32:16.695Z,102176.67
2023-02-07T04:33:17.110Z,102170.13
2023-02-07T04:34:17.432Z,102173.38
2023-02-07T04:35:18.246Z,102175.83
2023-02-07T04:36:18.556Z,102183.29
2023-02-07T04:37:18.782Z,102181.35
2023-02-07T04:38:19.083Z,102184.61
2023-02-07T04:39:19.914Z,102181.98
2023-02-07T04:40:20.538Z,102181.01
2023-02-07T04:41:20.456Z,102181.38
2023-02-07T04:42:20.769Z,102183.91
2023-02-07T04:43:21.364Z,102183.24
2023-02-07T04:44:21.788Z,102178.92
2023-02-07T04:45:22.211Z,102178.4
2023-02-07T04:46:22.429Z,102180.23
2023-02-07T04:47:24.056Z,102182.21
2023-02-07T04:48:23.560Z,102185.01
2023-02-07T04:49:23.680Z,102183.78
2023-02-07T04:50:24.188Z,102188.9
2023-02-07T04:51:24.594Z,102185.95
2023-02-07T04:52:24.918Z,102188.4
2023-02-07T04:53:26.059Z,102189.61
2023-02-07T04:54:26.050Z,102187.86
2023-02-07T04:55:26.265Z,102185.9
2023-02-07T04:56:26.588Z,102186.36
2023-02-07T04:57:27.107Z,102183.8
2023-02-07T04:58:27.617Z,102187.61
2023-02-07T04:59:27.831Z,102185.66
2023-02-07T05:00:28.449Z,102183.98
2023-02-07T05:01:28.733Z,102186.04
2023-02-07T05:02:29.174Z,102186.34
2023-02-07T05:03:29.474Z,102186.19
2023-02-07T05:04:29.943Z,102187.67
2023-02-07T05:05:30.326Z,102188.48
2023-02-07T05:06:30.649Z,102189.24
2023-02-07T05:07:31.164Z,102188.52
2023-02-07T05:08:31.577Z,102194.59
2023-02-07T05:09:31.884Z,102197.58
2023-02-07T05:10:32.730Z,102196.18
2023-02-07T05:11:32.731Z,102202.12
2023-02-07T05:12:33.255Z,102204.2
2023-02-07T05:13:35.193Z,102202.73
2023-02-07T05:14:33.982Z,102200.98
2023-02-07T05:15:34.596Z,102197.6
2023-02-07T05:16:35.038Z,102201.87
2023-02-07T05:17:35.533Z,102203.67
2023-02-07T05:18:35.645Z,102202.82
2023-02-07T05:19:36.157Z,102202.44
2023-02-07T05:20:36.578Z,102203.92
2023-02-07T05:21:36.991Z,102201
2023-02-07T05:22:37.414Z,102202.42
2023-02-07T05:23:37.726Z,102205.84
2023-02-07T05:24:41.110Z,102206
2023-02-07T05:25:47.269Z,102204.1
2023-02-07T05:26:40.488Z,102207.68
2023-02-07T05:27:40.103Z,102207.08
2023-02-07T05:28:40.319Z,102211.28
2023-02-07T05:29:40.823Z,102214.25
2023-02-07T05:30:41.285Z,102214.19
2023-02-07T05:31:41.812Z,102211.62
2023-02-07T05:32:41.961Z,102216.82
2023-02-07T05:33:42.613Z,102221.56
2023-02-07T05:34:43.934Z,102221.28
2023-02-07T05:35:46.399Z,102223.61
2023-02-07T05:36:43.834Z,102223.2
2023-02-07T05:37:44.063Z,102225.39
2023-02-07T05:38:44.365Z,102226.38
2023-02-07T05:39:44.797Z,102222.45
2023-02-07T05:40:45.806Z,102224.38
2023-02-07T05:41:46.256Z,102229.11
2023-02-07T05:42:45.796Z,102232.14
2023-02-07T05:43:46.599Z,102231.69
2023-02-07T05:44:46.944Z,102237.45
2023-02-07T05:45:47.274Z,102239.57
2023-02-07T05:46:47.706Z,102240.34
2023-02-07T05:47:48.836Z,102238.75
2023-02-07T05:48:48.125Z,102242.89
2023-02-07T05:49:48.649Z,102244.22
2023-02-07T05:50:49.270Z,102243.86
2023-02-07T05:51:49.583Z,102245.95
2023-02-07T05:52:50.010Z,102244.76
2023-02-07T05:53:50.214Z,102247.19
2023-02-07T05:54:50.535Z,102247.11
2023-02-07T05:55:54.010Z,102247.33
2023-02-07T05:56:51.353Z,102253.55
2023-02-07T05:57:51.667Z,102247.73
2023-02-07T05:58:52.096Z,102251.69
2023-02-07T05:59:52.209Z,102253.31
2023-02-07T06:00:52.517Z,102255.91
2023-02-07T06:01:52.925Z,102256.3
2023-02-07T06:02:53.539Z,102263.2
2023-02-07T06:03:53.795Z,102259.11
2023-02-07T06:04:54.085Z,102260.66
2023-02-07T06:05:54.512Z,102263.91
2023-02-07T06:06:54.701Z,102261.84
2023-02-07T06:07:55.115Z,102259.38
2023-02-07T06:08:55.542Z,102257.94
2023-02-07T06:09:55.747Z,102258.72
2023-02-07T06:10:56.152Z,102254.16
2023-02-07T06:11:56.570Z,102253.77
2023-02-07T06:12:56.784Z,102253.31
2023-02-07T06:13:57.001Z,102255.99
2023-02-07T06:14:57.520Z,102251.64
2023-02-07T06:15:57.798Z,102252.52
2023-02-07T06:16:58.148Z,102254.11
2023-02-07T06:17:58.454Z,102256.98
2023-02-07T06:18:58.561Z,102259.02
2023-02-07T06:19:58.893Z,102261.61
2023-02-07T06:20:59.407Z,102265.12
2023-02-07T06:21:59.815Z,102261.59
2023-02-07T06:22:59.836Z,102263.98
2023-02-07T06:24:00.132Z,102266.98
2023-02-07T06:25:00.574Z,102266.67
2023-02-07T06:26:00.968Z,102264.95
2023-02-07T06:27:01.299Z,102269.33
2023-02-07T06:28:01.702Z,102269.61
2023-02-07T06:29:01.918Z,102270.73
2023-02-07T06:30:02.141Z,102275.81
2023-02-07T06:31:02.507Z,102278.7
2023-02-07T06:32:02.950Z,102279.1
2023-02-07T06:33:03.193Z,102282.3
2023-02-07T06:34:03.703Z,102284.28
2023-02-07T06:35:04.826Z,102289.87
2023-02-07T06:36:04.940Z,102293.94
2023-02-07T06:37:04.537Z,102293.57
2023-02-07T06:38:04.743Z,102295.79
2023-02-07T06:39:05.260Z,102294.41
2023-02-07T06:40:06.363Z,102296.45
2023-02-07T06:41:05.786Z,102299.52
2023-02-07T06:42:06.723Z,102298.88
2023-02-07T06:43:08.921Z,102301.34
2023-02-07T06:44:06.830Z,102302.06
2023-02-07T06:45:08.980Z,102305.84
2023-02-07T06:46:07.698Z,102308.95
2023-02-07T06:47:08.074Z,102311.28
2023-02-07T06:48:09.612Z,102307.64
2023-02-07T06:49:08.423Z,102306.09
2023-02-07T06:50:09.530Z,102302.8
2023-02-07T06:51:09.248Z,102302.19
2023-02-07T06:52:09.450Z,102305.24
2023-02-07T06:53:09.757Z,102304.22
2023-02-07T06:54:10.078Z,102301.19
2023-02-07T06:55:10.294Z,102310.36
2023-02-07T06:56:10.710Z,102310.77
2023-02-07T06:57:11.218Z,102313.32
2023-02-07T06:58:11.521Z,102303.27
2023-02-07T06:59:11.671Z,102305.36
2023-02-07T07:00:12.829Z,102301.02
2023-02-07T07:01:12.577Z,102303.03
2023-02-07T07:02:13.107Z,102304.43
2023-02-07T07:03:17.512Z,102303.8
2023-02-07T07:04:14.872Z,102308.94
2023-02-07T07:05:16.473Z,102307.53
2023-02-07T07:06:15.584Z,102307.07
2023-02-07T07:07:15.900Z,102304.16
2023-02-07T07:08:16.210Z,102307.52
2023-02-07T07:09:16.553Z,102306.05
2023-02-07T07:10:16.996Z,102303.84
2023-02-07T07:11:17.245Z,102301.27
2023-02-07T07:12:17.570Z,102301.81
2023-02-07T07:13:17.782Z,102300.38
2023-02-07T07:14:18.398Z,102296.31
2023-02-07T07:15:21.383Z,102293.8
2023-02-07T07:16:19.672Z,102292.46
2023-02-07T07:17:19.146Z,102289.36
2023-02-07T07:18:19.467Z,102290.79
2023-02-07T07:19:19.676Z,102290.54
2023-02-07T07:20:20.183Z,102291.45
2023-02-07T07:21:20.361Z,102291.91
2023-02-07T07:22:21.256Z,102292.98
2023-02-07T07:23:21.137Z,102295.61
2023-02-07T07:24:21.746Z,102294.28
2023-02-07T07:25:21.551Z,102304.11
2023-02-07T07:26:21.969Z,102302.92
2023-02-07T07:27:22.272Z,102301.62
2023-02-07T07:28:22.532Z,102298.16
2023-02-07T07:29:23.311Z,102307.73
2023-02-07T07:30:23.528Z,102306.23
2023-02-07T07:31:24.820Z,102306.78
2023-02-07T07:32:33.594Z,102309.94
2023-02-07T07:33:26.525Z,102305.77
2023-02-07T07:34:26.726Z,102302.94
2023-02-07T07:35:27.343Z,102310.22
2023-02-07T07:36:27.581Z,102305.39
2023-02-07T07:37:27.975Z,102304.32
2023-02-07T07:38:28.270Z,102308.25
2023-02-07T07:39:28.601Z,102310.83
2023-02-07T07:40:28.952Z,102306.88
2023-02-07T07:41:29.115Z,102308.66
2023-02-07T07:42:29.655Z,102304.41
2023-02-07T07:43:29.668Z,102303.86
2023-02-07T07:44:30.169Z,102306.7
2023-02-07T07:45:30.376Z,102308.61
2023-02-07T07:46:30.882Z,102308.61
2023-02-07T07:47:31.311Z,102311.78
2023-02-07T07:48:31.919Z,102312.22
2023-02-07T07:49:31.854Z,102313.41
2023-02-07T07:50:31.959Z,102314.77
2023-02-07T07:51:32.787Z,102319.39
2023-02-07T07:52:32.891Z,102319.41
2023-02-07T07:53:33.610Z,102323.52
2023-02-07T07:54:33.412Z,102323.05
2023-02-07T07:55:33.824Z,102318.66
2023-02-07T07:56:33.938Z,102324.89
2023-02-07T07:57:34.451Z,102322.91
2023-02-07T07:58:34.561Z,102326.11
2023-02-07T07:59:35.078Z,102324.67
2023-02-07T08:00:35.295Z,102327.06
2023-02-07T08:01:35.811Z,102326.16
2023-02-07T08:02:36.042Z,102331.62
2023-02-07T08:03:36.403Z,102332.7
2023-02-07T08:04:36.767Z,102336.13
2023-02-07T08:05:37.280Z,102336.72
2023-02-07T08:06:37.397Z,102339.42
2023-02-07T08:07:37.893Z,102341.13
2023-02-07T08:08:38.419Z,102346.6
2023-02-07T08:09:38.218Z,102344.8
2023-02-07T08:10:39.479Z,102339.8
2023-02-07T08:11:39.068Z,102340.7
2023-02-07T08:12:39.490Z,102343.77
2023-02-07T08:13:39.776Z,102343.33
2023-02-07T08:14:40.015Z,102341.98
2023-02-07T08:15:40.200Z,102341.2
2023-02-07T08:16:40.518Z,102344.08
2023-02-07T08:17:41.144Z,102338.98
2023-02-07T08:18:41.356Z,102339.46
2023-02-07T08:19:41.665Z,102341.6
2023-02-07T08:20:41.984Z,102341.88
2023-02-07T08:21:44.680Z,102343.6
2023-02-07T08:22:42.817Z,102342.99
2023-02-07T08:23:43.023Z,102338.64
2023-02-07T08:24:43.256Z,102343.81
2023-02-07T08:25:44.073Z,102342.16
2023-02-07T08:26:44.196Z,102344.38
2023-02-07T08:27:44.794Z,102346.03
2023-02-07T08:28:44.498Z,102346.42
2023-02-07T08:29:45.935Z,102342.16
2023-02-07T08:30:45.818Z,102345.18
2023-02-07T08:31:45.627Z,102344.57
2023-02-07T08:32:45.949Z,102348.02
2023-02-07T08:33:46.162Z,102354.12
2023-02-07T08:34:46.793Z,102352.72
2023-02-07T08:35:49.889Z,102350.73
2023-02-07T08:36:47.414Z,102352.91
2023-02-07T08:37:47.826Z,102350.39
2023-02-07T08:38:47.841Z,102358.7
2023-02-07T08:39:48.357Z,102354.14
2023-02-07T08:40:48.667Z,102353.46
2023-02-07T08:41:48.897Z,102358.16
2023-02-07T08:42:49.924Z,102349.2
2023-02-07T08:43:49.710Z,102353.05
2023-02-07T08:44:51.062Z,102354.66
2023-02-07T08:45:50.526Z,102357.25
2023-02-07T08:46:50.659Z,102355.88
2023-02-07T08:47:51.181Z,102355.9
2023-02-07T08:48:51.798Z,102356.45
2023-02-07T08:49:51.592Z,102355.53
2023-02-07T08:50:51.921Z,102350.66
2023-02-07T08:51:52.641Z,102349.88
2023-02-07T08:52:52.853Z,102349.34
2023-02-07T08:53:54.053Z,102339.41
2023-02-07T08:54:53.482Z,102341.52
2023-02-07T08:55:55.120Z,102338.7
2023-02-07T08:56:54.000Z,102339.89
2023-02-07T08:57:54.423Z,102340.91
2023-02-07T08:58:54.720Z,102342.58
2023-02-07T08:59:55.149Z,102339.02
2023-02-07T09:00:55.393Z,102338.93
2023-02-07T09:01:55.618Z,102337.84
2023-02-07T09:02:56.090Z,102337.57
2023-02-07T09:03:56.910Z,102338.52
2023-02-07T09:04:56.609Z,102332.19
2023-02-07T09:06:00.207Z,102334.68
2023-02-07T09:06:57.586Z,102331.7
2023-02-07T09:07:58.992Z,102335.92
2023-02-07T09:09:01.156Z,102332.76
2023-02-07T09:09:58.600Z,102338.55
2023-02-07T09:10:59.056Z,102338.77
2023-02-07T09:11:59.223Z,102336.44
2023-02-07T09:12:59.861Z,102341.48
2023-02-07T09:13:59.950Z,102342.44
2023-02-07T09:15:00.159Z,102336.09
2023-02-07T09:16:00.580Z,102340.09
2023-02-07T09:17:01.033Z,102331.44
2023-02-07T09:18:01.334Z,102331.59
2023-02-07T09:19:01.624Z,102329.72
2023-02-07T09:20:02.238Z,102328.31
2023-02-07T09:21:02.366Z,102334.83
2023-02-07T09:22:03.597Z,102333.17
2023-02-07T09:23:03.187Z,102331.1
2023-02-07T09:24:04.009Z,102329.6
2023-02-07T09:25:04.223Z,102332.88
2023-02-07T09:26:06.035Z,102333.36
2023-02-07T09:27:04.345Z,102325.61
2023-02-07T09:28:07.446Z,102326.33
2023-02-07T09:29:11.326Z,102333.95
2023-02-07T09:30:10.717Z,102337.56
2023-02-07T09:31:13.639Z,102332.94
2023-02-07T09:32:11.135Z,102341.58
2023-02-07T09:33:12.878Z,102340.42
2023-02-07T09:34:11.766Z,102342.32
2023-02-07T09:35:11.972Z,102344.78
2023-02-07T09:37:12.503Z,102342.98
2023-02-07T09:38:15.381Z,102345.52
2023-02-07T09:39:13.241Z,102342.94
2023-02-07T09:40:17.640Z,102345.73
2023-02-07T09:45:33.957Z,102352.72
2023-02-07T09:46:33.075Z,102356.05
2023-02-07T09:47:33.137Z,102354.7
2023-02-07T09:50:42.008Z,102348.38
2023-02-07T09:51:40.964Z,102351.38
2023-02-07T09:56:59.116Z,102356.91
2023-02-07T10:01:07.045Z,102361.4
2023-02-07T10:05:18.428Z,102357.29
2023-02-07T10:07:14.950Z,102353.59
2023-02-07T10:08:18.347Z,102354.17
2023-02-07T10:09:18.243Z,102356.16
2023-02-07T10:10:18.251Z,102360.27
2023-02-07T10:26:58.310Z,102352.37
2023-02-07T10:31:11.894Z,102353.98
2023-02-07T10:36:15.345Z,102353.25
2023-02-07T10:42:29.233Z,102356.97
2023-02-07T10:43:35.001Z,102354.84
2023-02-07T10:44:32.413Z,102356.48
2023-02-07T10:45:33.449Z,102357.98
2023-02-07T10:46:35.034Z,102360.48
2023-02-07T10:47:40.209Z,102363.09
2023-02-07T10:48:38.380Z,102364.36
2023-02-07T10:49:42.877Z,102362.31
2023-02-07T10:50:40.546Z,102365.01
2023-02-07T10:51:43.001Z,102362.52
2023-02-07T10:55:49.885Z,102364.23
2023-02-07T10:56:51.547Z,102365.72
2023-02-07T10:58:02.570Z,102366.53
2023-02-07T10:58:49.713Z,102362.91
2023-02-07T11:00:52.092Z,102361.22
2023-02-07T11:01:54.354Z,102356.62
2023-02-07T11:02:54.331Z,102354.88
2023-02-07T11:03:52.816Z,102354.11
2023-02-07T11:04:52.404Z,102359.39
2023-02-07T11:05:58.765Z,102361.03
2023-02-07T11:08:05.209Z,102359.58
2023-02-07T11:12:18.562Z,102353.71
2023-02-07T11:13:29.193Z,102352.98
2023-02-07T11:14:20.129Z,102353.9
2023-02-07T11:15:20.553Z,102352.88
2023-02-07T11:16:20.244Z,102352.55
2023-02-07T11:17:21.671Z,102360.15
2023-02-07T11:19:27.017Z,102356.02
2023-02-07T11:22:29.376Z,102351.5
2023-02-07T11:23:30.108Z,102358.38
2023-02-07T11:26:36.188Z,102359.04
2023-02-07T11:27:41.803Z,102354.57
2023-02-07T11:28:34.235Z,102347.56
2023-02-07T11:29:45.106Z,102349.66
2023-02-07T11:30:37.759Z,102348.02
2023-02-07T11:31:38.942Z,102345.64
2023-02-07T11:32:39.077Z,102343.52
2023-02-07T11:33:38.783Z,102344.93
2023-02-07T11:36:46.149Z,102345.16
2023-02-07T11:38:50.887Z,102345.89
2023-02-07T11:39:50.401Z,102349.78
2023-02-07T11:40:49.187Z,102352.84
2023-02-07T11:41:59.830Z,102358.28
2023-02-07T11:43:01.889Z,102352.89
2023-02-07T11:44:00.305Z,102354.75
2023-02-07T11:45:03.021Z,102351.53
2023-02-07T11:46:07.170Z,102353.97
2023-02-07T11:47:05.398Z,102349.31
2023-02-07T11:48:06.523Z,102350.13
2023-02-07T11:49:18.719Z,102347.59
2023-02-07T11:50:08.368Z,102339.65
2023-02-07T11:51:09.818Z,102340.36
2023-02-07T11:52:08.801Z,102339.66
2023-02-07T11:53:15.871Z,102337.48
2023-02-07T11:54:09.847Z,102336.64
2023-02-07T11:55:18.035Z,102335.69
2023-02-07T11:57:16.215Z,102333.81
2023-02-07T12:02:26.323Z,102341.23
2023-02-07T12:03:28.451Z,102339.02
2023-02-07T12:08:36.146Z,102330.73
2023-02-07T12:10:42.304Z,102324.62
2023-02-07T12:11:42.412Z,102322.3
2023-02-07T12:12:45.489Z,102323.11
2023-02-07T12:16:56.275Z,102331.05
2023-02-07T12:20:06.140Z,102332.75
2023-02-07T12:24:24.998Z,102344.42
2023-02-07T12:25:30.002Z,102353.17
2023-02-07T12:27:35.493Z,102351.08
2023-02-07T12:28:37.927Z,102354.78
2023-02-07T12:30:41.658Z,102351.53
2023-02-07T12:36:53.542Z,102360.98
2023-02-07T12:37:54.268Z,102362.71
2023-02-07T12:38:53.685Z,102363.58
2023-02-07T12:45:03.536Z,102366.27
2023-02-07T12:56:45.894Z,102368.92
2023-02-07T13:22:59.792Z,102383.81
2023-02-07T13:24:02.861Z,102381.93
2023-02-07T13:25:02.673Z,102378.06
2023-02-07T13:26:09.094Z,102376.88
2023-02-07T13:27:06.159Z,102374.6
2023-02-07T13:29:13.133Z,102384.95
2023-02-07T13:30:18.670Z,102381.3
2023-02-07T13:32:21.457Z,102384.29
2023-02-07T13:34:28.023Z,102382.06
2023-02-07T13:35:29.966Z,102375.73
2023-02-07T13:52:10.932Z,102362.52
2023-02-07T13:56:12.917Z,102374.77
2023-02-07T14:00:25.544Z,102383.72
2023-02-07T14:01:30.272Z,102384.92
2023-02-07T14:02:28.315Z,102391.19
2023-02-07T14:03:34.485Z,102391.64
2023-02-07T14:05:41.263Z,102391.98
2023-02-07T14:09:50.271Z,102392.99
2023-02-07T14:10:56.432Z,102393.5
2023-02-07T14:12:57.460Z,102392.2
2023-02-07T14:16:13.544Z,102394.78
2023-02-07T14:17:15.622Z,102393.73
2023-02-07T14:24:31.859Z,102412.28
2023-02-07T14:27:42.812Z,102409.06
2023-02-07T14:28:40.379Z,102407.7
2023-02-07T14:29:51.224Z,102403.77
2023-02-07T14:36:54.877Z,102402.57
2023-02-07T14:45:19.918Z,102404.41
2023-02-07T14:46:18.302Z,102402.06
2023-02-07T14:47:28.025Z,102404.33
2023-02-07T14:50:30.768Z,102408.2
2023-02-07T14:52:34.660Z,102409.55
2023-02-07T14:53:32.043Z,102405.89
2023-02-07T15:00:51.029Z,102415.61
2023-02-07T15:01:48.647Z,102413.84
2023-02-07T15:04:53.921Z,102417.39
2023-02-07T15:06:00.102Z,102415.09
2023-02-07T15:06:59.162Z,102415.16
2023-02-07T15:09:02.773Z,102421.77
2023-02-07T15:10:14.659Z,102411.52
2023-02-07T15:11:13.839Z,102413.44
2023-02-07T15:12:26.807Z,102413.64
2023-02-07T15:16:22.828Z,102412.08
2023-02-07T15:17:21.859Z,102410.8
2023-02-07T15:18:22.502Z,102410.03
2023-02-07T15:20:28.636Z,102411.52
2023-02-07T15:21:39.532Z,102409.09
2023-02-07T15:22:29.167Z,102412.55
2023-02-07T15:23:30.381Z,102411.98
2023-02-07T15:24:49.615Z,102414.33
2023-02-07T15:25:31.822Z,102414.14
2023-02-07T15:26:29.593Z,102414.62
2023-02-07T15:27:30.110Z,102408.03
2023-02-07T15:28:32.146Z,102410.45
2023-02-07T15:29:32.889Z,102417.54
2023-02-07T15:30:31.744Z,102411.7
2023-02-07T15:31:30.921Z,102412.76
2023-02-07T15:32:35.369Z,102413.53
2023-02-07T15:33:38.243Z,102414.08
2023-02-07T15:34:35.492Z,102419.96
2023-02-07T15:35:39.074Z,102416.79
2023-02-07T15:36:39.191Z,102419.47
2023-02-07T15:37:36.843Z,102418.52
2023-02-07T15:38:36.959Z,102423.62
2023-02-07T15:39:37.581Z,102425.7
2023-02-07T15:40:37.813Z,102423.48
2023-02-07T15:41:37.987Z,102421.3
2023-02-07T15:42:38.510Z,102423.33
2023-02-07T15:48:55.269Z,102429.91
2023-02-07T15:50:59.869Z,102434.58
2023-02-07T15:54:03.160Z,102433.2
2023-02-07T15:56:08.600Z,102438.28
2023-02-07T15:59:19.472Z,102443.17
2023-02-07T16:01:26.492Z,102440.09
2023-02-07T16:02:30.005Z,102441.38
2023-02-07T16:04:31.572Z,102445.9
2023-02-07T16:06:31.398Z,102448.8
2023-02-07T16:07:30.783Z,102447.5
2023-02-07T16:08:38.791Z,102452.83
2023-02-07T16:10:38.802Z,102452.94
2023-02-07T16:11:39.322Z,102450.75
2023-02-07T16:14:43.214Z,102450.06
2023-02-07T16:17:43.661Z,102452.44
2023-02-07T16:18:47.968Z,102454.86
2023-02-07T16:19:49.607Z,102455.64
2023-02-07T16:20:47.163Z,102460.3
2023-02-07T16:22:49.016Z,102463.04
2023-02-07T16:23:52.610Z,102463.14
2023-02-07T16:24:51.862Z,102467.81
2023-02-07T16:25:50.167Z,102469.33
2023-02-07T16:26:52.029Z,102468.2
2023-02-07T16:27:52.579Z,102466.91
2023-02-07T16:28:51.531Z,102469.67
2023-02-07T16:29:51.795Z,102467.56
2023-02-07T16:30:52.089Z,102468.38
2023-02-07T16:31:53.637Z,102465.12
2023-02-07T16:32:52.670Z,102468.55
2023-02-07T16:33:52.883Z,102468.94
2023-02-07T16:34:59.600Z,102469.57
2023-02-07T16:35:57.300Z,102467.86
2023-02-07T16:36:57.602Z,102469.8
2023-02-07T16:37:58.043Z,102465.53
2023-02-07T16:38:58.263Z,102469.54
2023-02-07T16:39:58.678Z,102468.1
2023-02-07T16:40:59.598Z,102466.42
2023-02-07T16:42:07.679Z,102468.12
2023-02-07T16:43:04.310Z,102468.05
2023-02-07T16:44:05.156Z,102467.91
2023-02-07T16:45:02.379Z,102468.84
2023-02-07T16:46:03.427Z,102468.2
2023-02-07T16:47:03.836Z,102467.79
2023-02-07T16:48:03.711Z,102471.28
2023-02-07T16:51:11.027Z,102467.45
2023-02-07T16:52:11.641Z,102468.79
2023-02-07T16:53:11.552Z,102456.28
2023-02-07T16:54:12.175Z,102458.67